sensor_id;sensor_type;location;lat;lon;timestamp;pressure;altitude;pressure_sealevel;temperature;humidity
78800;BME280;68148;55.328;86.106;2023-05-07T00:01:48;100486.78;;;9.21;51.22
78800;BME280;68148;55.328;86.106;2023-05-07T00:04:14;100497.84;;;9.25;51.68
78800;BME280;68148;55.328;86.106;2023-05-07T00:06:40;100490.59;;;9.27;51.96
78800;BME280;68148;55.328;86.106;2023-05-07T00:09:06;100485.84;;;9.31;52.24
78800;BME280;68148;55.328;86.106;2023-05-07T00:11:34;100487.00;;;9.36;52.36
78800;BME280;68148;55.328;86.106;2023-05-07T00:14:00;100483.41;;;9.45;52.13
78800;BME280;68148;55.328;86.106;2023-05-07T00:16:25;100490.69;;;9.60;51.46
78800;BME280;68148;55.328;86.106;2023-05-07T00:18:52;100488.25;;;9.74;51.04
78800;BME280;68148;55.328;86.106;2023-05-07T00:21:18;100501.13;;;9.86;51.16
78800;BME280;68148;55.328;86.106;2023-05-07T00:23:44;100496.81;;;9.93;51.71
78800;BME280;68148;55.328;86.106;2023-05-07T00:26:10;100496.19;;;9.99;51.45
78800;BME280;68148;55.328;86.106;2023-05-07T00:28:35;100502.13;;;10.09;50.65
78800;BME280;68148;55.328;86.106;2023-05-07T00:31:01;100495.84;;;10.18;50.91
78800;BME280;68148;55.328;86.106;2023-05-07T00:33:27;100497.06;;;10.32;50.22
78800;BME280;68148;55.328;86.106;2023-05-07T00:35:53;100502.16;;;10.42;49.83
78800;BME280;68148;55.328;86.106;2023-05-07T00:38:19;100506.75;;;10.48;49.23
78800;BME280;68148;55.328;86.106;2023-05-07T00:40:47;100500.81;;;10.54;48.53
78800;BME280;68148;55.328;86.106;2023-05-07T00:43:13;100504.78;;;10.50;48.80
78800;BME280;68148;55.328;86.106;2023-05-07T00:45:39;100503.44;;;10.62;48.49
78800;BME280;68148;55.328;86.106;2023-05-07T00:48:05;100500.94;;;10.77;48.08
78800;BME280;68148;55.328;86.106;2023-05-07T00:50:32;100508.84;;;10.85;47.48
78800;BME280;68148;55.328;86.106;2023-05-07T00:53:00;100510.25;;;11.04;46.61
78800;BME280;68148;55.328;86.106;2023-05-07T00:55:26;100508.91;;;11.16;46.34
78800;BME280;68148;55.328;86.106;2023-05-07T00:58:00;100511.31;;;11.26;45.36
78800;BME280;68148;55.328;86.106;2023-05-07T01:00:26;100517.25;;;11.36;45.60
78800;BME280;68148;55.328;86.106;2023-05-07T01:02:52;100509.59;;;11.49;45.03
78800;BME280;68148;55.328;86.106;2023-05-07T01:05:19;100515.13;;;11.63;44.14
78800;BME280;68148;55.328;86.106;2023-05-07T01:07:46;100512.41;;;11.79;44.16
78800;BME280;68148;55.328;86.106;2023-05-07T01:10:12;100509.53;;;11.89;43.23
78800;BME280;68148;55.328;86.106;2023-05-07T01:12:38;100512.78;;;11.99;43.29
78800;BME280;68148;55.328;86.106;2023-05-07T01:15:08;100514.38;;;12.08;42.75
78800;BME280;68148;55.328;86.106;2023-05-07T01:17:36;100512.19;;;12.12;42.46
78800;BME280;68148;55.328;86.106;2023-05-07T01:20:05;100510.41;;;12.27;42.67
78800;BME280;68148;55.328;86.106;2023-05-07T01:22:35;100509.81;;;12.40;42.13
78800;BME280;68148;55.328;86.106;2023-05-07T01:25:01;100509.38;;;12.51;41.64
78800;BME280;68148;55.328;86.106;2023-05-07T01:27:27;100516.34;;;12.67;41.85
78800;BME280;68148;55.328;86.106;2023-05-07T01:29:54;100520.25;;;12.71;41.43
78800;BME280;68148;55.328;86.106;2023-05-07T01:32:43;100511.41;;;12.78;41.60
78800;BME280;68148;55.328;86.106;2023-05-07T01:35:15;100521.56;;;13.04;40.92
78800;BME280;68148;55.328;86.106;2023-05-07T01:37:44;100524.50;;;12.95;40.94
78800;BME280;68148;55.328;86.106;2023-05-07T01:40:11;100525.50;;;12.94;41.20
78800;BME280;68148;55.328;86.106;2023-05-07T01:42:37;100521.13;;;12.86;40.88
78800;BME280;68148;55.328;86.106;2023-05-07T01:45:04;100521.19;;;12.93;41.71
78800;BME280;68148;55.328;86.106;2023-05-07T01:47:30;100526.25;;;13.02;40.63
78800;BME280;68148;55.328;86.106;2023-05-07T01:49:56;100523.94;;;13.14;40.57
78800;BME280;68148;55.328;86.106;2023-05-07T01:52:22;100525.66;;;13.22;40.40
78800;BME280;68148;55.328;86.106;2023-05-07T01:54:48;100529.72;;;13.33;40.60
78800;BME280;68148;55.328;86.106;2023-05-07T01:57:14;100529.13;;;13.52;39.68
78800;BME280;68148;55.328;86.106;2023-05-07T01:59:40;100529.56;;;13.70;39.89
78800;BME280;68148;55.328;86.106;2023-05-07T02:02:05;100523.13;;;13.80;39.68
78800;BME280;68148;55.328;86.106;2023-05-07T02:04:31;100523.72;;;13.96;39.55
78800;BME280;68148;55.328;86.106;2023-05-07T02:06:57;100526.19;;;13.98;38.51
78800;BME280;68148;55.328;86.106;2023-05-07T02:09:23;100520.06;;;13.97;38.69
78800;BME280;68148;55.328;86.106;2023-05-07T02:11:48;100526.78;;;14.00;39.30
78800;BME280;68148;55.328;86.106;2023-05-07T02:14:15;100516.72;;;14.10;38.99
78800;BME280;68148;55.328;86.106;2023-05-07T02:16:41;100514.22;;;14.30;38.35
78800;BME280;68148;55.328;86.106;2023-05-07T02:19:07;100520.03;;;14.40;38.18
78800;BME280;68148;55.328;86.106;2023-05-07T02:21:32;100514.03;;;14.53;37.45
78800;BME280;68148;55.328;86.106;2023-05-07T02:23:58;100519.59;;;14.58;37.14
78800;BME280;68148;55.328;86.106;2023-05-07T02:26:24;100520.63;;;14.64;37.08
78800;BME280;68148;55.328;86.106;2023-05-07T02:28:51;100515.81;;;14.74;36.79
78800;BME280;68148;55.328;86.106;2023-05-07T02:31:18;100512.81;;;14.84;36.54
78800;BME280;68148;55.328;86.106;2023-05-07T02:33:43;100517.63;;;15.01;36.64
78800;BME280;68148;55.328;86.106;2023-05-07T02:36:10;100515.66;;;15.17;35.98
78800;BME280;68148;55.328;86.106;2023-05-07T02:38:36;100501.19;;;15.33;36.00
78800;BME280;68148;55.328;86.106;2023-05-07T02:41:02;100509.84;;;15.48;35.42
78800;BME280;68148;55.328;86.106;2023-05-07T02:43:28;100506.19;;;15.62;35.39
78800;BME280;68148;55.328;86.106;2023-05-07T02:46:04;100504.25;;;15.77;34.42
78800;BME280;68148;55.328;86.106;2023-05-07T02:48:30;100501.22;;;15.94;34.39
78800;BME280;68148;55.328;86.106;2023-05-07T02:50:57;100503.66;;;16.09;33.73
78800;BME280;68148;55.328;86.106;2023-05-07T02:53:23;100501.44;;;16.25;33.80
78800;BME280;68148;55.328;86.106;2023-05-07T02:55:49;100499.41;;;16.41;33.41
78800;BME280;68148;55.328;86.106;2023-05-07T02:58:15;100497.94;;;16.51;33.65
78800;BME280;68148;55.328;86.106;2023-05-07T03:00:40;100496.06;;;16.65;33.16
78800;BME280;68148;55.328;86.106;2023-05-07T03:03:06;100488.28;;;16.57;31.18
78800;BME280;68148;55.328;86.106;2023-05-07T03:05:32;100481.75;;;16.80;31.94
78800;BME280;68148;55.328;86.106;2023-05-07T03:07:58;100485.81;;;16.89;31.13
78800;BME280;68148;55.328;86.106;2023-05-07T03:10:23;100486.63;;;16.89;30.36
78800;BME280;68148;55.328;86.106;2023-05-07T03:12:49;100485.16;;;17.07;31.13
78800;BME280;68148;55.328;86.106;2023-05-07T03:15:16;100483.03;;;17.22;31.26
78800;BME280;68148;55.328;86.106;2023-05-07T03:17:42;100483.97;;;17.41;31.17
78800;BME280;68148;55.328;86.106;2023-05-07T03:20:08;100480.19;;;17.55;30.74
78800;BME280;68148;55.328;86.106;2023-05-07T03:22:34;100477.09;;;17.65;29.36
78800;BME280;68148;55.328;86.106;2023-05-07T03:25:00;100481.22;;;17.61;29.55
78800;BME280;68148;55.328;86.106;2023-05-07T03:27:25;100470.88;;;17.77;30.14
78800;BME280;68148;55.328;86.106;2023-05-07T03:29:51;100472.16;;;18.00;30.50
78800;BME280;68148;55.328;86.106;2023-05-07T03:32:17;100472.22;;;18.18;30.52
78800;BME280;68148;55.328;86.106;2023-05-07T03:34:43;100474.34;;;18.35;29.40
78800;BME280;68148;55.328;86.106;2023-05-07T03:37:09;100465.00;;;18.44;28.82
78800;BME280;68148;55.328;86.106;2023-05-07T03:39:35;100462.28;;;18.50;27.37
78800;BME280;68148;55.328;86.106;2023-05-07T03:42:02;100460.13;;;18.59;28.36
78800;BME280;68148;55.328;86.106;2023-05-07T03:44:28;100454.44;;;18.74;26.73
78800;BME280;68148;55.328;86.106;2023-05-07T03:46:55;100460.47;;;18.88;26.54
78800;BME280;68148;55.328;86.106;2023-05-07T03:49:23;100456.09;;;18.93;26.04
78800;BME280;68148;55.328;86.106;2023-05-07T03:51:49;100465.06;;;18.99;26.59
78800;BME280;68148;55.328;86.106;2023-05-07T03:54:15;100456.16;;;19.23;27.14
78800;BME280;68148;55.328;86.106;2023-05-07T03:56:41;100454.28;;;19.24;26.61
78800;BME280;68148;55.328;86.106;2023-05-07T03:59:06;100452.81;;;19.40;26.29
78800;BME280;68148;55.328;86.106;2023-05-07T04:01:32;100455.03;;;19.43;25.51
78800;BME280;68148;55.328;86.106;2023-05-07T04:03:58;100448.69;;;19.56;25.87
78800;BME280;68148;55.328;86.106;2023-05-07T04:06:24;100446.84;;;19.56;26.03
78800;BME280;68148;55.328;86.106;2023-05-07T04:08:51;100447.50;;;19.70;25.80
78800;BME280;68148;55.328;86.106;2023-05-07T04:11:18;100448.47;;;19.87;25.81
78800;BME280;68148;55.328;86.106;2023-05-07T04:13:43;100439.38;;;19.88;25.36
78800;BME280;68148;55.328;86.106;2023-05-07T04:16:09;100447.09;;;20.08;25.77
78800;BME280;68148;55.328;86.106;2023-05-07T04:18:35;100443.25;;;20.16;24.84
78800;BME280;68148;55.328;86.106;2023-05-07T04:21:01;100443.84;;;20.18;25.34
78800;BME280;68148;55.328;86.106;2023-05-07T04:23:29;100443.16;;;20.34;25.70
78800;BME280;68148;55.328;86.106;2023-05-07T04:25:55;100445.97;;;20.51;25.37
78800;BME280;68148;55.328;86.106;2023-05-07T04:28:20;100437.91;;;20.63;25.69
78800;BME280;68148;55.328;86.106;2023-05-07T04:30:46;100437.28;;;20.84;24.78
78800;BME280;68148;55.328;86.106;2023-05-07T04:33:14;100433.19;;;20.93;25.19
78800;BME280;68148;55.328;86.106;2023-05-07T04:35:40;100435.66;;;20.95;24.57
78800;BME280;68148;55.328;86.106;2023-05-07T04:38:05;100434.31;;;21.09;24.09
78800;BME280;68148;55.328;86.106;2023-05-07T04:40:31;100431.25;;;21.17;24.83
78800;BME280;68148;55.328;86.106;2023-05-07T04:42:57;100432.03;;;21.30;24.31
78800;BME280;68148;55.328;86.106;2023-05-07T04:45:22;100420.22;;;21.31;24.40
78800;BME280;68148;55.328;86.106;2023-05-07T04:47:48;100423.97;;;21.30;24.37
78800;BME280;68148;55.328;86.106;2023-05-07T04:50:14;100421.84;;;21.43;24.38
78800;BME280;68148;55.328;86.106;2023-05-07T04:52:40;100412.97;;;21.43;24.31
78800;BME280;68148;55.328;86.106;2023-05-07T04:55:06;100423.97;;;21.58;24.20
78800;BME280;68148;55.328;86.106;2023-05-07T04:57:33;100421.03;;;21.43;24.43
78800;BME280;68148;55.328;86.106;2023-05-07T04:59:58;100412.13;;;21.54;24.26
78800;BME280;68148;55.328;86.106;2023-05-07T05:02:24;100410.88;;;21.62;23.94
78800;BME280;68148;55.328;86.106;2023-05-07T05:04:50;100407.13;;;21.80;24.09
78800;BME280;68148;55.328;86.106;2023-05-07T05:07:16;100413.03;;;21.93;23.83
78800;BME280;68148;55.328;86.106;2023-05-07T05:09:42;100412.09;;;22.05;22.95
78800;BME280;68148;55.328;86.106;2023-05-07T05:12:08;100407.81;;;21.87;23.23
78800;BME280;68148;55.328;86.106;2023-05-07T05:14:35;100400.22;;;22.00;23.28
78800;BME280;68148;55.328;86.106;2023-05-07T05:17:01;100397.22;;;22.14;23.35
78800;BME280;68148;55.328;86.106;2023-05-07T05:19:27;100393.25;;;22.16;23.45
78800;BME280;68148;55.328;86.106;2023-05-07T05:21:52;100397.03;;;22.37;23.55
78800;BME280;68148;55.328;86.106;2023-05-07T05:24:18;100383.06;;;22.18;22.58
78800;BME280;68148;55.328;86.106;2023-05-07T05:26:44;100384.63;;;22.14;22.12
78800;BME280;68148;55.328;86.106;2023-05-07T05:29:10;100380.84;;;22.32;22.75
78800;BME280;68148;55.328;86.106;2023-05-07T05:31:35;100379.13;;;22.48;22.46
78800;BME280;68148;55.328;86.106;2023-05-07T05:34:02;100380.47;;;22.45;22.96
78800;BME280;68148;55.328;86.106;2023-05-07T05:36:28;100370.09;;;22.54;22.96
78800;BME280;68148;55.328;86.106;2023-05-07T05:38:55;100360.41;;;22.53;22.31
78800;BME280;68148;55.328;86.106;2023-05-07T05:41:21;100363.84;;;22.48;22.50
78800;BME280;68148;55.328;86.106;2023-05-07T05:43:48;100355.63;;;22.60;22.48
78800;BME280;68148;55.328;86.106;2023-05-07T05:46:14;100349.63;;;22.75;22.17
78800;BME280;68148;55.328;86.106;2023-05-07T05:48:40;100348.00;;;22.96;21.59
78800;BME280;68148;55.328;86.106;2023-05-07T05:51:06;100336.00;;;22.87;21.81
78800;BME280;68148;55.328;86.106;2023-05-07T05:53:32;100343.19;;;22.98;22.29
78800;BME280;68148;55.328;86.106;2023-05-07T05:55:58;100332.00;;;23.11;22.49
78800;BME280;68148;55.328;86.106;2023-05-07T05:58:24;100331.59;;;23.24;21.98
78800;BME280;68148;55.328;86.106;2023-05-07T06:00:50;100327.16;;;23.40;21.39
78800;BME280;68148;55.328;86.106;2023-05-07T06:03:16;100323.72;;;23.50;20.40
78800;BME280;68148;55.328;86.106;2023-05-07T06:05:42;100325.88;;;23.48;20.21
78800;BME280;68148;55.328;86.106;2023-05-07T06:08:08;100321.06;;;23.55;20.06
78800;BME280;68148;55.328;86.106;2023-05-07T06:10:35;100316.28;;;23.62;20.25
78800;BME280;68148;55.328;86.106;2023-05-07T06:13:00;100320.38;;;23.65;18.62
78800;BME280;68148;55.328;86.106;2023-05-07T06:15:26;100308.66;;;23.54;18.99
78800;BME280;68148;55.328;86.106;2023-05-07T06:17:53;100315.59;;;23.45;19.28
78800;BME280;68148;55.328;86.106;2023-05-07T06:20:19;100305.75;;;23.56;19.24
78800;BME280;68148;55.328;86.106;2023-05-07T06:22:45;100303.59;;;23.58;19.93
78800;BME280;68148;55.328;86.106;2023-05-07T06:25:11;100306.16;;;23.74;20.12
78800;BME280;68148;55.328;86.106;2023-05-07T06:27:36;100303.03;;;23.93;20.11
78800;BME280;68148;55.328;86.106;2023-05-07T06:30:02;100300.78;;;23.80;19.71
78800;BME280;68148;55.328;86.106;2023-05-07T06:32:28;100297.88;;;23.86;19.71
78800;BME280;68148;55.328;86.106;2023-05-07T06:34:54;100291.09;;;23.79;19.81
78800;BME280;68148;55.328;86.106;2023-05-07T06:37:20;100287.13;;;23.91;20.03
78800;BME280;68148;55.328;86.106;2023-05-07T06:39:46;100286.19;;;23.70;20.30
78800;BME280;68148;55.328;86.106;2023-05-07T06:42:11;100282.53;;;23.87;20.55
78800;BME280;68148;55.328;86.106;2023-05-07T06:44:37;100273.06;;;23.84;20.55
78800;BME280;68148;55.328;86.106;2023-05-07T06:47:03;100283.50;;;23.70;20.18
78800;BME280;68148;55.328;86.106;2023-05-07T06:49:29;100277.16;;;23.55;19.99
78800;BME280;68148;55.328;86.106;2023-05-07T06:51:55;100270.69;;;23.93;20.47
78800;BME280;68148;55.328;86.106;2023-05-07T06:54:21;100268.91;;;24.14;20.45
78800;BME280;68148;55.328;86.106;2023-05-07T06:56:47;100261.38;;;24.16;20.43
78800;BME280;68148;55.328;86.106;2023-05-07T06:59:14;100261.41;;;24.31;20.41
78800;BME280;68148;55.328;86.106;2023-05-07T07:01:40;100261.50;;;24.41;20.06
78800;BME280;68148;55.328;86.106;2023-05-07T07:04:06;100251.53;;;24.47;19.97
78800;BME280;68148;55.328;86.106;2023-05-07T07:06:31;100261.41;;;24.31;19.61
78800;BME280;68148;55.328;86.106;2023-05-07T07:08:58;100252.81;;;24.34;19.80
78800;BME280;68148;55.328;86.106;2023-05-07T07:11:24;100251.63;;;24.10;19.41
78800;BME280;68148;55.328;86.106;2023-05-07T07:13:50;100248.25;;;24.40;19.70
78800;BME280;68148;55.328;86.106;2023-05-07T07:16:16;100243.44;;;24.57;19.47
78800;BME280;68148;55.328;86.106;2023-05-07T07:18:42;100241.59;;;24.73;19.55
78800;BME280;68148;55.328;86.106;2023-05-07T07:21:10;100228.66;;;24.80;18.75
78800;BME280;68148;55.328;86.106;2023-05-07T07:23:36;100234.53;;;24.57;18.94
78800;BME280;68148;55.328;86.106;2023-05-07T07:26:01;100232.13;;;24.65;19.33
78800;BME280;68148;55.328;86.106;2023-05-07T07:28:27;100224.88;;;24.81;19.32
78800;BME280;68148;55.328;86.106;2023-05-07T07:30:53;100229.47;;;24.81;18.48
78800;BME280;68148;55.328;86.106;2023-05-07T07:33:19;100211.91;;;24.83;19.10
78800;BME280;68148;55.328;86.106;2023-05-07T07:35:45;100219.50;;;25.02;19.11
78800;BME280;68148;55.328;86.106;2023-05-07T07:38:10;100222.47;;;25.26;18.19
78800;BME280;68148;55.328;86.106;2023-05-07T07:40:36;100218.69;;;25.16;18.28
78800;BME280;68148;55.328;86.106;2023-05-07T07:43:02;100214.91;;;25.28;18.35
78800;BME280;68148;55.328;86.106;2023-05-07T07:45:28;100208.66;;;25.42;18.78
78800;BME280;68148;55.328;86.106;2023-05-07T07:47:54;100209.22;;;25.44;17.95
78800;BME280;68148;55.328;86.106;2023-05-07T07:50:20;100201.38;;;25.53;17.85
78800;BME280;68148;55.328;86.106;2023-05-07T07:52:46;100197.84;;;25.42;17.58
78800;BME280;68148;55.328;86.106;2023-05-07T07:55:11;100195.97;;;25.43;17.23
78800;BME280;68148;55.328;86.106;2023-05-07T07:57:37;100196.53;;;25.25;17.53
78800;BME280;68148;55.328;86.106;2023-05-07T08:00:03;100198.19;;;25.15;17.74
78800;BME280;68148;55.328;86.106;2023-05-07T08:02:30;100185.72;;;25.30;17.12
78800;BME280;68148;55.328;86.106;2023-05-07T08:04:56;100182.50;;;25.33;17.25
78800;BME280;68148;55.328;86.106;2023-05-07T08:07:22;100175.75;;;25.35;17.89
78800;BME280;68148;55.328;86.106;2023-05-07T08:09:47;100179.72;;;25.48;17.56
78800;BME280;68148;55.328;86.106;2023-05-07T08:12:14;100175.47;;;25.32;17.51
78800;BME280;68148;55.328;86.106;2023-05-07T08:14:40;100177.59;;;25.45;17.76
78800;BME280;68148;55.328;86.106;2023-05-07T08:17:06;100171.94;;;25.41;17.26
78800;BME280;68148;55.328;86.106;2023-05-07T08:19:32;100166.72;;;25.60;17.14
78800;BME280;68148;55.328;86.106;2023-05-07T08:21:58;100166.69;;;25.76;17.25
78800;BME280;68148;55.328;86.106;2023-05-07T08:24:24;100164.03;;;25.65;16.76
78800;BME280;68148;55.328;86.106;2023-05-07T08:26:50;100168.94;;;25.48;15.46
78800;BME280;68148;55.328;86.106;2023-05-07T08:29:16;100160.81;;;25.53;16.31
78800;BME280;68148;55.328;86.106;2023-05-07T08:31:42;100163.72;;;25.77;16.32
78800;BME280;68148;55.328;86.106;2023-05-07T08:34:08;100162.41;;;25.59;16.30
78800;BME280;68148;55.328;86.106;2023-05-07T08:36:35;100161.34;;;25.65;16.07
78800;BME280;68148;55.328;86.106;2023-05-07T08:39:01;100158.06;;;25.68;16.58
78800;BME280;68148;55.328;86.106;2023-05-07T08:41:27;100158.28;;;25.92;15.83
78800;BME280;68148;55.328;86.106;2023-05-07T08:43:56;100145.88;;;25.81;15.68
78800;BME280;68148;55.328;86.106;2023-05-07T08:46:24;100152.66;;;25.68;15.74
78800;BME280;68148;55.328;86.106;2023-05-07T08:48:52;100144.28;;;25.70;15.84
78800;BME280;68148;55.328;86.106;2023-05-07T08:51:19;100142.63;;;25.69;16.29
78800;BME280;68148;55.328;86.106;2023-05-07T08:53:46;100136.94;;;25.76;15.50
78800;BME280;68148;55.328;86.106;2023-05-07T08:56:12;100150.53;;;25.65;15.25
78800;BME280;68148;55.328;86.106;2023-05-07T08:58:38;100143.44;;;25.75;15.75
78800;BME280;68148;55.328;86.106;2023-05-07T09:01:09;100145.06;;;25.76;15.83
78800;BME280;68148;55.328;86.106;2023-05-07T09:03:37;100136.41;;;25.84;15.35
78800;BME280;68148;55.328;86.106;2023-05-07T09:06:03;100131.00;;;25.73;15.91
78800;BME280;68148;55.328;86.106;2023-05-07T09:08:29;100135.63;;;25.68;15.78
78800;BME280;68148;55.328;86.106;2023-05-07T09:10:55;100128.59;;;25.72;15.70
78800;BME280;68148;55.328;86.106;2023-05-07T09:13:21;100126.13;;;25.76;15.77
78800;BME280;68148;55.328;86.106;2023-05-07T09:15:47;100122.88;;;25.84;15.38
78800;BME280;68148;55.328;86.106;2023-05-07T09:18:12;100116.44;;;25.64;15.44
78800;BME280;68148;55.328;86.106;2023-05-07T09:20:39;100119.13;;;25.75;15.12
78800;BME280;68148;55.328;86.106;2023-05-07T09:23:09;100115.63;;;25.79;14.79
78800;BME280;68148;55.328;86.106;2023-05-07T09:25:35;100106.66;;;25.84;15.15
78800;BME280;68148;55.328;86.106;2023-05-07T09:28:03;100103.97;;;25.84;14.77
78800;BME280;68148;55.328;86.106;2023-05-07T09:30:30;100103.94;;;25.89;15.06
78800;BME280;68148;55.328;86.106;2023-05-07T09:32:58;100109.38;;;25.84;15.03
78800;BME280;68148;55.328;86.106;2023-05-07T09:35:25;100103.41;;;25.87;14.61
78800;BME280;68148;55.328;86.106;2023-05-07T09:37:52;100098.28;;;25.80;15.09
78800;BME280;68148;55.328;86.106;2023-05-07T09:40:27;100100.47;;;25.78;15.39
78800;BME280;68148;55.328;86.106;2023-05-07T09:42:54;100090.69;;;25.87;15.49
78800;BME280;68148;55.328;86.106;2023-05-07T09:45:25;100094.22;;;25.88;15.14
78800;BME280;68148;55.328;86.106;2023-05-07T09:47:57;100088.00;;;25.82;14.40
78800;BME280;68148;55.328;86.106;2023-05-07T09:50:28;100096.09;;;25.87;14.88
78800;BME280;68148;55.328;86.106;2023-05-07T09:52:56;100087.22;;;25.77;14.98
78800;BME280;68148;55.328;86.106;2023-05-07T09:55:21;100087.44;;;25.85;15.12
78800;BME280;68148;55.328;86.106;2023-05-07T09:57:50;100092.28;;;25.93;14.66
78800;BME280;68148;55.328;86.106;2023-05-07T10:00:21;100080.94;;;25.86;15.13
78800;BME280;68148;55.328;86.106;2023-05-07T10:02:49;100078.03;;;25.83;14.59
78800;BME280;68148;55.328;86.106;2023-05-07T10:05:15;100081.19;;;25.90;15.18
78800;BME280;68148;55.328;86.106;2023-05-07T10:07:42;100074.94;;;25.94;14.61
78800;BME280;68148;55.328;86.106;2023-05-07T10:10:09;100081.69;;;26.02;14.77
78800;BME280;68148;55.328;86.106;2023-05-07T10:12:35;100078.13;;;26.07;14.32
78800;BME280;68148;55.328;86.106;2023-05-07T10:15:01;100075.75;;;26.00;14.70
78800;BME280;68148;55.328;86.106;2023-05-07T10:17:27;100073.06;;;25.95;14.59
78800;BME280;68148;55.328;86.106;2023-05-07T10:19:53;100070.63;;;25.93;14.70
78800;BME280;68148;55.328;86.106;2023-05-07T10:22:20;100074.69;;;25.91;14.85
78800;BME280;68148;55.328;86.106;2023-05-07T10:24:48;100064.94;;;25.95;15.13
78800;BME280;68148;55.328;86.106;2023-05-07T10:27:17;100063.78;;;26.06;14.75
78800;BME280;68148;55.328;86.106;2023-05-07T10:30:26;100062.22;;;26.00;14.89
78800;BME280;68148;55.328;86.106;2023-05-07T10:32:49;100059.28;;;25.96;14.71
78800;BME280;68148;55.328;86.106;2023-05-07T10:35:22;100051.97;;;25.97;14.55
78800;BME280;68148;55.328;86.106;2023-05-07T10:37:50;100052.25;;;25.90;14.60
78800;BME280;68148;55.328;86.106;2023-05-07T10:40:16;100060.16;;;25.82;14.47
78800;BME280;68148;55.328;86.106;2023-05-07T10:43:02;100061.78;;;25.83;14.58
78800;BME280;68148;55.328;86.106;2023-05-07T10:45:28;100055.03;;;25.80;14.91
78800;BME280;68148;55.328;86.106;2023-05-07T10:50:41;100057.97;;;25.89;14.32
78800;BME280;68148;55.328;86.106;2023-05-07T10:55:49;100063.19;;;25.70;14.28
78800;BME280;68148;55.328;86.106;2023-05-07T11:00:50;100053.44;;;25.69;14.82
78800;BME280;68148;55.328;86.106;2023-05-07T11:03:15;100048.38;;;25.52;14.71
78800;BME280;68148;55.328;86.106;2023-05-07T11:05:42;100045.91;;;25.66;14.72
78800;BME280;68148;55.328;86.106;2023-05-07T11:08:08;100043.97;;;25.77;14.66
78800;BME280;68148;55.328;86.106;2023-05-07T11:10:48;100037.72;;;25.76;14.58
78800;BME280;68148;55.328;86.106;2023-05-07T11:13:15;100044.78;;;25.77;14.82
78800;BME280;68148;55.328;86.106;2023-05-07T11:15:42;100040.97;;;25.83;14.03
78800;BME280;68148;55.328;86.106;2023-05-07T11:18:09;100029.78;;;25.95;14.73
78800;BME280;68148;55.328;86.106;2023-05-07T11:20:45;100033.28;;;26.01;14.55
78800;BME280;68148;55.328;86.106;2023-05-07T11:26:09;100030.78;;;26.09;14.58
78800;BME280;68148;55.328;86.106;2023-05-07T11:28:44;100030.38;;;26.26;14.92
78800;BME280;68148;55.328;86.106;2023-05-07T11:31:10;100025.41;;;26.38;14.58
78800;BME280;68148;55.328;86.106;2023-05-07T11:33:37;100023.50;;;26.44;14.78
78800;BME280;68148;55.328;86.106;2023-05-07T11:36:04;100020.22;;;26.42;14.59
78800;BME280;68148;55.328;86.106;2023-05-07T11:38:34;100022.03;;;26.57;14.30
78800;BME280;68148;55.328;86.106;2023-05-07T11:41:00;100022.31;;;26.55;14.47
78800;BME280;68148;55.328;86.106;2023-05-07T11:43:26;100020.31;;;26.66;14.28
78800;BME280;68148;55.328;86.106;2023-05-07T11:45:52;100016.78;;;26.65;14.24
78800;BME280;68148;55.328;86.106;2023-05-07T11:48:18;100018.94;;;26.68;14.41
78800;BME280;68148;55.328;86.106;2023-05-07T11:50:54;100015.00;;;26.80;14.05
78800;BME280;68148;55.328;86.106;2023-05-07T11:53:26;100018.41;;;26.66;14.03
78800;BME280;68148;55.328;86.106;2023-05-07T11:55:53;100018.88;;;26.44;13.82
78800;BME280;68148;55.328;86.106;2023-05-07T11:58:23;100021.06;;;26.42;14.04
78800;BME280;68148;55.328;86.106;2023-05-07T12:00:51;100021.78;;;26.53;14.50
78800;BME280;68148;55.328;86.106;2023-05-07T12:03:17;100014.47;;;26.54;14.45
78800;BME280;68148;55.328;86.106;2023-05-07T12:05:43;100025.47;;;26.62;13.96
78800;BME280;68148;55.328;86.106;2023-05-07T12:08:14;100018.47;;;26.61;13.97
78800;BME280;68148;55.328;86.106;2023-05-07T12:10:43;100017.41;;;26.57;14.24
78800;BME280;68148;55.328;86.106;2023-05-07T12:13:22;100012.16;;;26.37;14.35
78800;BME280;68148;55.328;86.106;2023-05-07T12:15:52;100019.41;;;26.46;14.10
78800;BME280;68148;55.328;86.106;2023-05-07T12:18:19;100013.53;;;26.34;14.52
78800;BME280;68148;55.328;86.106;2023-05-07T12:20:46;100015.72;;;26.32;14.35
78800;BME280;68148;55.328;86.106;2023-05-07T12:23:13;100020.28;;;26.37;14.30
78800;BME280;68148;55.328;86.106;2023-05-07T12:25:39;100012.19;;;26.32;14.46
78800;BME280;68148;55.328;86.106;2023-05-07T12:28:05;100024.47;;;26.19;14.09
78800;BME280;68148;55.328;86.106;2023-05-07T12:30:36;100019.81;;;26.25;14.33
78800;BME280;68148;55.328;86.106;2023-05-07T12:33:02;100013.63;;;26.24;14.55
78800;BME280;68148;55.328;86.106;2023-05-07T12:35:29;100018.25;;;26.18;14.37
78800;BME280;68148;55.328;86.106;2023-05-07T12:37:56;100015.56;;;26.18;14.22
78800;BME280;68148;55.328;86.106;2023-05-07T12:40:21;100014.34;;;26.01;14.49
78800;BME280;68148;55.328;86.106;2023-05-07T12:42:53;100008.22;;;25.85;14.70
78800;BME280;68148;55.328;86.106;2023-05-07T12:45:18;100015.84;;;25.78;14.52
78800;BME280;68148;55.328;86.106;2023-05-07T12:47:45;100012.63;;;25.70;14.67
78800;BME280;68148;55.328;86.106;2023-05-07T12:50:15;100012.94;;;25.64;14.58